createdAt,value
2019-04-14T00:00:22.975Z,23.97
2019-04-14T00:03:05.168Z,24.00
2019-04-14T00:05:35.467Z,23.30
2019-04-14T00:08:05.281Z,23.67
2019-04-14T00:10:33.789Z,21.97
2019-04-14T00:13:02.538Z,22.17
2019-04-14T00:15:38.841Z,23.00
2019-04-14T00:18:01.445Z,22.40
2019-04-14T00:20:29.902Z,23.43
2019-04-14T00:22:59.677Z,22.70
2019-04-14T00:25:28.432Z,22.53
2019-04-14T00:27:57.285Z,22.70
2019-04-14T00:30:27.229Z,22.37
2019-04-14T00:33:01.811Z,22.20
2019-04-14T00:35:47.208Z,22.97
2019-04-14T00:38:20.185Z,23.77
2019-04-14T00:41:05.327Z,23.77
2019-04-14T00:43:35.441Z,23.40
2019-04-14T00:46:14.718Z,24.93
2019-04-14T00:48:45.248Z,25.30
2019-04-14T00:51:13.759Z,24.50
2019-04-14T00:53:42.614Z,25.83
2019-04-14T00:56:11.082Z,26.27
2019-04-14T00:58:39.553Z,24.73
2019-04-14T01:01:09.060Z,26.53
2019-04-14T01:03:37.746Z,27.10
2019-04-14T01:06:07.535Z,25.77
2019-04-14T01:08:38.330Z,26.30
2019-04-14T01:11:07.396Z,25.33
2019-04-14T01:13:36.137Z,25.63
2019-04-14T01:16:11.548Z,26.67
2019-04-14T01:18:34.926Z,25.47
2019-04-14T01:21:04.503Z,25.83
2019-04-14T01:23:33.101Z,26.80
2019-04-14T01:26:02.803Z,25.83
2019-04-14T01:28:32.888Z,26.13
2019-04-14T01:31:01.491Z,25.73
2019-04-14T01:33:29.945Z,27.27
2019-04-14T01:35:59.630Z,27.17
2019-04-14T01:38:28.213Z,26.43
2019-04-14T01:40:57.690Z,26.07
2019-04-14T01:43:27.719Z,27.77
2019-04-14T01:46:05.205Z,26.53
2019-04-14T01:48:27.965Z,27.83
2019-04-14T01:50:58.450Z,27.73
2019-04-14T01:53:33.977Z,25.77
2019-04-14T01:56:04.089Z,25.60
2019-04-14T01:58:34.217Z,27.23
2019-04-14T02:01:07.004Z,26.27
2019-04-14T02:03:36.550Z,27.10
2019-04-14T02:06:05.288Z,26.07
2019-04-14T02:08:35.067Z,26.53
2019-04-14T02:11:05.117Z,26.93
2019-04-14T02:13:33.790Z,26.77
2019-04-14T02:16:16.475Z,25.57
2019-04-14T02:18:32.443Z,25.70
2019-04-14T02:21:02.039Z,25.47
2019-04-14T02:23:30.708Z,26.37
2019-04-14T02:26:00.097Z,27.17
2019-04-14T02:28:28.958Z,25.87
2019-04-14T02:31:10.320Z,26.73
2019-04-14T02:33:50.562Z,26.40
2019-04-14T02:36:32.269Z,25.97
2019-04-14T02:41:29.681Z,26.90
2019-04-14T02:43:58.059Z,25.43
2019-04-14T02:46:32.201Z,27.70
2019-04-14T02:51:26.919Z,27.20
2019-04-14T02:53:57.695Z,26.57
2019-04-14T03:04:09.039Z,24.83
2019-04-14T03:06:29.249Z,25.33
2019-04-14T03:11:43.988Z,23.37
2019-04-14T03:13:58.585Z,24.33
2019-04-14T03:19:06.741Z,23.20
2019-04-14T03:21:40.327Z,23.87
2019-04-14T03:24:29.253Z,22.93
2019-04-14T03:29:43.232Z,24.83
2019-04-14T03:32:31.822Z,24.97
2019-04-14T03:34:42.216Z,24.47
2019-04-14T03:39:49.621Z,25.07
2019-04-14T03:42:24.949Z,26.27
2019-04-14T03:44:48.940Z,25.07
2019-04-14T03:49:45.528Z,26.90
2019-04-14T03:52:18.999Z,25.87
2019-04-14T03:54:40.429Z,27.40
2019-04-14T03:56:53.643Z,25.87
2019-04-14T03:59:23.848Z,26.27
2019-04-14T04:01:52.540Z,26.60
2019-04-14T04:04:22.589Z,25.60
2019-04-14T04:06:51.329Z,25.40
2019-04-14T04:09:21.503Z,27.10
2019-04-14T04:11:49.986Z,26.57
2019-04-14T04:14:18.785Z,26.53
2019-04-14T04:16:52.861Z,25.67
2019-04-14T04:19:40.921Z,24.77
2019-04-14T04:22:30.322Z,24.30
2019-04-14T04:25:07.323Z,25.10
2019-04-14T04:27:40.323Z,24.07
2019-04-14T04:30:14.441Z,24.10
2019-04-14T04:32:57.873Z,24.67
2019-04-14T04:35:31.079Z,22.93
2019-04-14T04:38:18.091Z,24.27
2019-04-14T04:40:46.707Z,23.87
2019-04-14T04:43:15.182Z,23.47
2019-04-14T04:45:43.651Z,23.47
2019-04-14T04:48:13.153Z,23.63
2019-04-14T04:50:43.060Z,24.50
2019-04-14T04:53:11.656Z,24.33
2019-04-14T04:55:40.146Z,23.80
2019-04-14T04:58:09.973Z,23.50
2019-04-14T05:00:39.469Z,23.43
2019-04-14T05:03:08.100Z,22.83
2019-04-14T05:06:02.691Z,24.47
2019-04-14T05:08:32.587Z,23.57
2019-04-14T05:11:14.696Z,23.00
2019-04-14T05:13:44.789Z,24.93
2019-04-14T05:16:13.262Z,22.47
2019-04-14T05:18:41.905Z,23.53
2019-04-14T05:21:10.695Z,24.33
2019-04-14T05:23:39.176Z,23.90
2019-04-14T05:26:08.916Z,23.37
2019-04-14T05:28:37.994Z,22.87
2019-04-14T05:31:07.518Z,23.13
2019-04-14T05:33:36.422Z,23.43
2019-04-14T05:36:04.862Z,23.40
2019-04-14T05:38:34.400Z,22.63
2019-04-14T05:41:04.654Z,21.97
2019-04-14T05:43:42.898Z,22.30
2019-04-14T05:46:04.000Z,22.63
2019-04-14T05:48:33.641Z,21.27
2019-04-14T05:51:02.515Z,22.33
2019-04-14T05:53:31.061Z,23.13
2019-04-14T05:55:59.515Z,21.83
2019-04-14T05:58:27.972Z,22.37
2019-04-14T06:00:58.017Z,21.47
2019-04-14T06:03:27.680Z,22.33
2019-04-14T06:05:56.473Z,22.87
2019-04-14T06:08:25.066Z,21.93
2019-04-14T06:10:53.543Z,22.43
2019-04-14T06:13:22.011Z,21.87
2019-04-14T06:15:50.455Z,22.57
2019-04-14T06:18:18.919Z,21.93
2019-04-14T06:20:47.362Z,21.63
2019-04-14T06:23:16.139Z,21.60
2019-04-14T06:25:44.623Z,23.43
2019-04-14T06:28:13.115Z,22.77
2019-04-14T06:30:48.877Z,22.37
2019-04-14T06:33:18.980Z,21.53
2019-04-14T06:35:49.088Z,21.57
2019-04-14T06:38:28.450Z,22.50
2019-04-14T06:41:01.563Z,23.13
2019-04-14T06:43:30.004Z,22.13
2019-04-14T06:45:59.206Z,22.53
2019-04-14T06:48:27.659Z,22.73
2019-04-14T06:50:56.107Z,21.30
2019-04-14T06:53:24.565Z,20.20
2019-04-14T06:55:55.075Z,22.60
2019-04-14T06:58:23.723Z,22.07
2019-04-14T07:00:52.154Z,20.40
2019-04-14T07:03:20.965Z,21.80
2019-04-14T07:05:49.400Z,20.83
2019-04-14T07:08:17.864Z,21.30
2019-04-14T07:10:46.352Z,21.50
2019-04-14T07:13:14.808Z,21.17
2019-04-14T07:15:43.270Z,20.77
2019-04-14T07:18:12.154Z,21.93
2019-04-14T07:20:41.231Z,21.73
2019-04-14T07:23:09.701Z,22.30
2019-04-14T07:25:38.132Z,22.13
2019-04-14T07:28:06.587Z,21.80
2019-04-14T07:30:36.694Z,22.37
2019-04-14T07:33:09.463Z,22.23
2019-04-14T07:35:51.738Z,21.87
2019-04-14T07:38:28.241Z,22.60
2019-04-14T07:41:13.320Z,22.67
2019-04-14T07:43:49.189Z,22.43
2019-04-14T07:46:28.192Z,22.73
2019-04-14T07:49:07.358Z,20.73
2019-04-14T07:51:40.262Z,22.77
2019-04-14T07:54:10.363Z,21.63
2019-04-14T07:56:52.221Z,22.90
2019-04-14T07:59:22.769Z,22.40
2019-04-14T08:01:52.868Z,23.07
2019-04-14T08:04:22.953Z,23.33
2019-04-14T08:06:53.181Z,22.37
2019-04-14T08:09:21.627Z,24.37
2019-04-14T08:11:50.080Z,23.80
2019-04-14T08:14:21.638Z,22.67
2019-04-14T08:16:50.089Z,23.17
2019-04-14T08:19:18.597Z,24.03
2019-04-14T08:21:47.117Z,23.53
2019-04-14T08:24:15.551Z,24.30
2019-04-14T08:26:43.999Z,22.97
2019-04-14T08:29:12.457Z,22.53
2019-04-14T08:31:40.882Z,22.60
2019-04-14T08:34:09.641Z,22.83
2019-04-14T08:36:38.080Z,22.50
2019-04-14T08:39:09.921Z,23.93
2019-04-14T08:41:40.010Z,22.10
2019-04-14T08:44:10.122Z,23.07
2019-04-14T08:46:42.999Z,22.57
2019-04-14T08:49:15.874Z,21.53
2019-04-14T08:51:46.226Z,22.57
2019-04-14T08:54:16.645Z,21.73
2019-04-14T08:56:58.648Z,21.47
2019-04-14T08:59:38.068Z,22.47
2019-04-14T09:02:13.833Z,21.47
2019-04-14T09:04:46.850Z,20.80
2019-04-14T09:07:16.921Z,21.50
2019-04-14T09:09:47.353Z,21.10
2019-04-14T09:12:17.461Z,20.00
2019-04-14T09:14:56.302Z,20.57
2019-04-14T09:17:16.068Z,22.37
2019-04-14T09:19:44.530Z,21.93
2019-04-14T09:22:12.975Z,21.83
2019-04-14T09:24:41.495Z,22.17
2019-04-14T09:27:10.291Z,21.67
2019-04-14T09:29:38.788Z,21.23
2019-04-14T09:32:08.879Z,21.70
2019-04-14T09:34:37.325Z,21.20
2019-04-14T09:37:05.770Z,22.20
2019-04-14T09:39:34.225Z,21.83
2019-04-14T09:42:02.921Z,22.97
2019-04-14T09:44:31.365Z,21.47
2019-04-14T09:46:59.826Z,21.30
2019-04-14T09:49:28.275Z,23.27
2019-04-14T09:51:56.704Z,21.53
2019-04-14T09:54:25.151Z,21.33
2019-04-14T09:56:53.599Z,22.07
2019-04-14T09:59:22.073Z,22.67
2019-04-14T10:01:50.509Z,21.83
2019-04-14T10:04:18.934Z,21.67
2019-04-14T10:06:47.367Z,21.40
2019-04-14T10:09:15.889Z,21.97
2019-04-14T10:11:49.018Z,22.77
2019-04-14T10:14:14.657Z,22.23
2019-04-14T10:16:43.146Z,21.77
2019-04-14T10:19:11.607Z,21.57
2019-04-14T10:21:40.628Z,21.07
2019-04-14T10:24:09.068Z,20.37
2019-04-14T10:26:37.524Z,21.80
2019-04-14T10:29:06.009Z,21.23
2019-04-14T10:31:34.529Z,21.03
2019-04-14T10:34:03.011Z,21.23
2019-04-14T10:36:33.361Z,20.23
2019-04-14T10:39:01.793Z,20.27
2019-04-14T10:41:30.624Z,20.20
2019-04-14T10:43:59.122Z,21.07
2019-04-14T10:46:27.560Z,21.73
2019-04-14T10:48:56.001Z,21.90
2019-04-14T10:51:30.724Z,19.97
2019-04-14T10:53:54.612Z,21.20
2019-04-14T10:56:23.066Z,20.60
2019-04-14T10:58:51.510Z,21.00
2019-04-14T11:01:19.960Z,20.57
2019-04-14T11:03:48.407Z,18.80
2019-04-14T11:06:24.533Z,21.00
2019-04-14T11:08:52.965Z,19.90
2019-04-14T11:11:21.413Z,19.00
2019-04-14T11:13:49.857Z,20.20
2019-04-14T11:16:18.410Z,20.57
2019-04-14T11:18:46.931Z,19.47
2019-04-14T11:21:15.430Z,22.47
2019-04-14T11:23:43.840Z,19.63
2019-04-14T11:26:12.664Z,22.70
2019-04-14T11:28:41.101Z,19.90
2019-04-14T11:31:09.985Z,20.33
2019-04-14T11:33:55.950Z,21.17
2019-04-14T11:36:28.512Z,20.07
2019-04-14T11:39:01.440Z,21.23
2019-04-14T11:41:29.891Z,20.60
2019-04-14T11:43:58.345Z,20.57
2019-04-14T11:46:26.817Z,20.63
2019-04-14T11:48:55.248Z,19.93
2019-04-14T11:51:23.697Z,20.60
2019-04-14T11:53:52.117Z,19.13
2019-04-14T11:56:20.588Z,19.90
2019-04-14T11:58:49.074Z,19.47
2019-04-14T12:01:19.265Z,20.17
2019-04-14T12:03:52.645Z,19.10
2019-04-14T12:06:22.732Z,20.37
2019-04-14T12:08:56.167Z,19.37
2019-04-14T12:11:24.617Z,19.73
2019-04-14T12:13:53.072Z,19.80
2019-04-14T12:16:21.645Z,20.30
2019-04-14T12:18:50.068Z,21.17
2019-04-14T12:21:18.551Z,21.27
2019-04-14T12:23:50.856Z,20.13
2019-04-14T12:26:19.312Z,20.60
2019-04-14T12:28:47.787Z,20.63
2019-04-14T12:31:17.450Z,20.53
2019-04-14T12:33:47.811Z,20.80
2019-04-14T12:36:16.333Z,20.13
2019-04-14T12:38:45.171Z,21.13
2019-04-14T12:41:15.644Z,20.07
2019-04-14T12:43:45.716Z,20.87
2019-04-14T12:46:18.515Z,19.97
2019-04-14T12:48:48.647Z,21.00
2019-04-14T12:51:20.501Z,20.60
2019-04-14T12:53:48.885Z,20.37
2019-04-14T12:56:19.042Z,20.57
2019-04-14T12:59:00.974Z,20.27
2019-04-14T13:01:31.150Z,19.50
2019-04-14T13:03:59.673Z,19.27
2019-04-14T13:06:28.128Z,19.80
2019-04-14T13:08:57.043Z,19.40
2019-04-14T13:11:25.840Z,19.47
2019-04-14T13:13:54.293Z,18.03
2019-04-14T13:16:22.749Z,18.47
2019-04-14T13:18:51.690Z,19.77
2019-04-14T13:21:20.139Z,18.33
2019-04-14T13:23:48.634Z,18.77
2019-04-14T13:26:17.156Z,19.10
2019-04-14T13:28:45.619Z,19.37
2019-04-14T13:31:14.046Z,17.60
2019-04-14T13:33:42.490Z,18.50
2019-04-14T13:36:10.948Z,18.03
2019-04-14T13:38:39.383Z,15.70
2019-04-14T13:41:07.828Z,15.47
2019-04-14T13:43:36.300Z,15.27
2019-04-14T13:46:04.839Z,13.07
2019-04-14T13:48:33.276Z,13.97
2019-04-14T13:51:01.734Z,12.70
2019-04-14T13:53:30.172Z,13.47
2019-04-14T13:55:58.604Z,13.00
2019-04-14T13:58:27.450Z,13.10
2019-04-14T14:00:55.934Z,13.53
2019-04-14T14:03:24.439Z,13.20
2019-04-14T14:05:53.197Z,12.67
2019-04-14T14:08:21.762Z,12.57
2019-04-14T14:10:51.883Z,11.73
2019-04-14T14:13:22.025Z,11.93
2019-04-14T14:16:10.165Z,11.77
2019-04-14T14:18:45.973Z,11.40
2019-04-14T14:21:16.434Z,11.87
2019-04-14T14:23:58.533Z,11.30
2019-04-14T14:26:28.607Z,11.93
2019-04-14T14:28:57.064Z,12.40
2019-04-14T14:31:25.513Z,11.30
2019-04-14T14:33:53.952Z,11.70
2019-04-14T14:36:22.397Z,11.63
2019-04-14T14:38:50.900Z,11.77
2019-04-14T14:41:19.325Z,11.00
2019-04-14T14:43:47.800Z,11.53
2019-04-14T14:46:36.852Z,11.70
2019-04-14T14:49:09.027Z,11.27
2019-04-14T14:51:51.053Z,10.83
2019-04-14T14:54:19.508Z,11.67
2019-04-14T14:56:47.967Z,11.87
2019-04-14T14:59:16.410Z,12.23
2019-04-14T15:01:44.933Z,11.83
2019-04-14T15:04:13.401Z,11.50
2019-04-14T15:06:41.822Z,10.97
2019-04-14T15:09:11.319Z,12.17
2019-04-14T15:11:39.736Z,12.33
2019-04-14T15:14:08.197Z,11.30
2019-04-14T15:16:36.728Z,10.43
2019-04-14T15:19:05.166Z,11.57
2019-04-14T15:21:33.600Z,11.43
2019-04-14T15:24:02.085Z,11.33
2019-04-14T15:26:30.613Z,11.27
2019-04-14T15:28:59.105Z,11.17
2019-04-14T15:31:27.617Z,11.03
2019-04-14T15:33:56.053Z,11.47
2019-04-14T15:36:24.992Z,10.47
2019-04-14T15:38:53.455Z,11.03
2019-04-14T15:41:21.876Z,10.50
2019-04-14T15:43:50.364Z,10.67
2019-04-14T15:46:19.230Z,11.53
2019-04-14T15:48:47.780Z,11.40
2019-04-14T15:51:16.221Z,10.27
2019-04-14T15:53:44.688Z,10.67
2019-04-14T15:56:14.778Z,9.87
2019-04-14T15:58:50.580Z,10.30
2019-04-14T16:01:26.324Z,10.60
2019-04-14T16:04:12.616Z,9.93
2019-04-14T16:06:45.722Z,9.47
2019-04-14T16:09:21.931Z,9.63
2019-04-14T16:12:04.225Z,10.10
2019-04-14T16:14:34.469Z,9.83
2019-04-14T16:17:19.516Z,9.53
2019-04-14T16:20:04.675Z,10.00
2019-04-14T16:22:33.155Z,10.17
2019-04-14T16:25:01.674Z,10.40
2019-04-14T16:27:37.644Z,10.80
2019-04-14T16:30:24.457Z,10.40
2019-04-14T16:33:03.155Z,10.73
2019-04-14T16:35:33.264Z,11.37
2019-04-14T16:38:01.746Z,11.10
2019-04-14T16:40:30.284Z,11.20
2019-04-14T16:42:58.755Z,10.73
2019-04-14T16:45:27.196Z,11.20
2019-04-14T16:47:55.984Z,11.47
2019-04-14T16:50:24.501Z,11.63
2019-04-14T16:52:54.627Z,11.63
2019-04-14T16:55:40.959Z,11.23
2019-04-14T16:58:11.042Z,11.40
2019-04-14T17:00:41.125Z,12.73
2019-04-14T17:03:09.549Z,11.90
2019-04-14T17:05:39.211Z,11.00
2019-04-14T17:08:08.381Z,11.57
2019-04-14T17:10:36.823Z,11.50
2019-04-14T17:13:08.692Z,11.27
2019-04-14T17:15:41.572Z,11.70
2019-04-14T17:18:27.157Z,12.07
2019-04-14T17:21:11.957Z,11.93
2019-04-14T17:23:42.044Z,12.53
2019-04-14T17:26:12.137Z,11.67
2019-04-14T17:28:48.573Z,12.43
2019-04-14T17:31:24.893Z,11.83
2019-04-14T17:34:06.912Z,12.57
2019-04-14T17:36:53.593Z,12.97
2019-04-14T17:39:23.653Z,12.97
2019-04-14T17:42:03.348Z,13.07
2019-04-14T17:44:39.603Z,12.93
2019-04-14T17:47:27.657Z,12.50
2019-04-14T17:50:00.758Z,12.40
2019-04-14T17:52:37.109Z,11.70
2019-04-14T17:55:25.584Z,12.07
2019-04-14T17:58:01.416Z,11.53
2019-04-14T18:00:48.029Z,12.13
2019-04-14T18:03:20.929Z,11.27
2019-04-14T18:06:09.078Z,10.97
2019-04-14T18:08:54.015Z,11.43
2019-04-14T18:11:30.289Z,11.10
2019-04-14T18:14:00.382Z,11.80
2019-04-14T18:16:46.973Z,11.03
2019-04-14T18:19:20.030Z,11.10
2019-04-14T18:21:48.461Z,11.67
2019-04-14T18:24:16.904Z,11.80
2019-04-14T18:26:45.369Z,12.80
2019-04-14T18:29:31.920Z,11.43
2019-04-14T18:32:07.838Z,12.53
2019-04-14T18:34:50.000Z,10.60
2019-04-14T18:37:29.197Z,11.70
2019-04-14T18:40:05.423Z,11.87
2019-04-14T18:42:38.083Z,10.90
2019-04-14T18:45:15.468Z,10.23
2019-04-14T18:47:54.745Z,10.70
2019-04-14T18:50:43.045Z,10.73
2019-04-14T18:53:13.177Z,10.83
2019-04-14T18:55:45.938Z,11.63
2019-04-14T18:58:18.801Z,13.23
2019-04-14T19:00:51.841Z,14.30
2019-04-14T19:03:20.294Z,13.03
2019-04-14T19:05:48.757Z,12.00
2019-04-14T19:08:17.212Z,12.00
2019-04-14T19:10:47.308Z,13.13
2019-04-14T19:13:20.054Z,11.87
2019-04-14T19:15:50.143Z,13.77
2019-04-14T19:18:22.353Z,13.23
2019-04-14T19:20:52.439Z,11.13
2019-04-14T19:23:21.179Z,11.53
2019-04-14T19:25:49.604Z,12.60
2019-04-14T19:28:18.062Z,12.07
2019-04-14T19:30:46.522Z,11.47
2019-04-14T19:33:17.981Z,12.57
2019-04-14T19:35:46.420Z,11.70
2019-04-14T19:38:14.873Z,10.53
2019-04-14T19:40:43.311Z,11.10
2019-04-14T19:43:23.101Z,11.43
2019-04-14T19:45:41.905Z,11.00
2019-04-14T19:48:10.390Z,11.17
2019-04-14T19:50:38.831Z,12.07
2019-04-14T19:53:07.290Z,11.37
2019-04-14T19:55:37.217Z,12.27
2019-04-14T19:58:06.061Z,11.70
2019-04-14T20:00:34.488Z,12.30
2019-04-14T20:03:02.928Z,11.33
2019-04-14T20:05:31.381Z,12.30
2019-04-14T20:07:59.848Z,12.03
2019-04-14T20:10:28.298Z,12.57
2019-04-14T20:12:56.754Z,11.50
2019-04-14T20:15:26.820Z,11.27
2019-04-14T20:18:03.068Z,11.07
2019-04-14T20:20:48.129Z,12.90
2019-04-14T20:23:18.712Z,12.33
2019-04-14T20:26:03.984Z,12.17
2019-04-14T20:28:40.052Z,11.90
2019-04-14T20:31:19.355Z,10.93
2019-04-14T20:33:47.808Z,11.10
2019-04-14T20:36:16.285Z,10.20
2019-04-14T20:38:44.716Z,9.30
2019-04-14T20:41:13.180Z,9.67
2019-04-14T20:43:41.962Z,10.50
2019-04-14T20:46:10.402Z,9.47
2019-04-14T20:48:38.860Z,10.47
2019-04-14T20:51:07.311Z,10.73
2019-04-14T20:53:35.766Z,11.20
2019-04-14T20:56:04.190Z,10.33
2019-04-14T20:58:32.946Z,10.10
2019-04-14T21:01:01.385Z,10.33
2019-04-14T21:03:31.495Z,11.77
2019-04-14T21:06:07.093Z,11.60
2019-04-14T21:08:55.294Z,11.53
2019-04-14T21:11:25.664Z,11.07
2019-04-14T21:13:55.769Z,10.77
2019-04-14T21:16:28.528Z,10.47
2019-04-14T21:18:58.613Z,9.37
2019-04-14T21:21:40.581Z,9.93
2019-04-14T21:24:26.848Z,9.40
2019-04-14T21:26:59.886Z,10.00
2019-04-14T21:29:30.379Z,10.50
2019-04-14T21:32:06.352Z,10.60
2019-04-14T21:34:36.453Z,10.03
2019-04-14T21:37:15.196Z,10.47
2019-04-14T21:39:45.289Z,10.17
2019-04-14T21:42:14.398Z,10.47
2019-04-14T21:44:42.904Z,10.60
2019-04-14T21:47:11.354Z,10.27
2019-04-14T21:49:39.799Z,9.93
2019-04-14T21:52:09.876Z,9.97
2019-04-14T21:54:40.281Z,10.17
2019-04-14T21:57:10.351Z,9.47
2019-04-14T21:59:58.665Z,10.70
2019-04-14T22:02:45.140Z,10.57
2019-04-14T22:05:30.428Z,10.97
2019-04-14T22:08:16.922Z,10.43
2019-04-14T22:11:05.088Z,10.40
2019-04-14T22:13:33.549Z,10.37
2019-04-14T22:16:02.077Z,10.80
2019-04-14T22:18:30.508Z,10.93
2019-04-14T22:20:59.049Z,10.60
2019-04-14T22:23:27.513Z,11.00
2019-04-14T22:25:56.022Z,11.33
2019-04-14T22:28:24.482Z,11.67
2019-04-14T22:30:53.015Z,11.47
2019-04-14T22:33:21.469Z,11.50
2019-04-14T22:35:49.910Z,11.67
2019-04-14T22:38:18.383Z,11.43
2019-04-14T22:40:47.210Z,11.30
2019-04-14T22:43:15.714Z,10.90
2019-04-14T22:45:44.250Z,13.63
2019-04-14T22:48:12.690Z,13.80
2019-04-14T22:50:41.142Z,14.87
2019-04-14T22:53:09.596Z,16.50
2019-04-14T22:55:38.059Z,16.97
2019-04-14T22:58:06.630Z,13.33
2019-04-14T23:00:42.576Z,13.03
2019-04-14T23:03:30.882Z,13.73
2019-04-14T23:06:07.129Z,12.03
2019-04-14T23:08:43.013Z,13.00
2019-04-14T23:11:18.732Z,11.23
2019-04-14T23:14:05.152Z,11.37
2019-04-14T23:16:38.262Z,11.40
2019-04-14T23:19:14.142Z,11.87
2019-04-14T23:21:44.211Z,12.67
2019-04-14T23:24:22.912Z,11.97
2019-04-14T23:26:52.922Z,11.70
2019-04-14T23:29:21.529Z,11.30
2019-04-14T23:31:50.072Z,12.07
2019-04-14T23:34:18.880Z,12.13
2019-04-14T23:36:47.335Z,12.50
2019-04-14T23:39:15.760Z,12.07
2019-04-14T23:41:44.212Z,12.30
2019-04-14T23:44:12.672Z,12.97
2019-04-14T23:46:41.114Z,11.90
2019-04-14T23:49:09.590Z,12.40
2019-04-14T23:51:38.039Z,11.63
2019-04-14T23:54:06.498Z,11.73
2019-04-14T23:56:35.046Z,11.50
2019-04-14T23:59:03.969Z,12.17
